Skip Navigation LinksHome page > Weather > Current weather Skip Navigation Links

Current Weather

Ronald Reagan Washington National, Washington

For information only: do not use for flight planning or navigation.
Latest weather
Observation time Friday, May 25, 2018 7:52 AM EDT
Local time Friday, May 25, 2018 8:43 AM EDT
Flight conditions Visual Meteorological Conditions
Winds
Wind direction South (170°)
Wind speed 9 mph
Visibility 10 mi.
Sky condition
Ceiling unlimited
Sky clear
Temperature 67°F
Dewpoint 62°F
Altimeter 30.10 in.Hg
Pressure change last 3 hours0.00 in.Hg
Pressure rising, then falling
Derived measurements
Relative humidity 84%
Density altitude 587 ft.
Sea-level pressure 30.10 in.Hg
Climate data
Temperature minimum, last 6 hours 63°F
Temperature maximum, last 6 hours 67°F
Remarks
Automated weather observing station with precipitation discriminator.
METAR KDCA 251152Z 17008KT 10SM CLR 19/17 A3010 RMK AO2 SLP193 T01940167 10194 20172 50001

Settings

Location code

InnerDrive.Weather 4.0.6615.0 Release CLR 4.0.30319.42000
Copyright ©2018 Inner Drive Technology. All rights reserved. Portions Copyright ©1986-2018 David Braverman.

Find weather

Site navigation


Skip Navigation Links

Place info

Page info

PayPal - The safer, easier way to pay online!

Return home.

Copyright ©2018 Inner Drive Technology. Purveyors of fine, hand-crafted computer software. Page printed 2018-05-25T12:43:09 UTC.